Time;durP1;ratioP1;P1;durP2;ratioP2;P2;SDS_P1;SDS_P2;PMS_P1;PMS_P2;Temp;Humidity;BMP_temperature;BMP_pressure;BME280_temperature;BME280_humidity;BME280_pressure;Samples;Min_cycle;Max_cycle;Signal;HPM_P1;HPM_P2
2024/02/27 00:01:56;;;;;;;2.67;1.30;;;;;;;6.40;91.57;100670.81;5033478;28;20487;-69
2024/02/27 00:04:23;;;;;;;3.17;1.40;;;;;;;6.37;91.73;100678.63;5033490;28;20470;-69
2024/02/27 00:06:51;;;;;;;3.53;1.50;;;;;;;6.42;92.05;100671.38;5033455;28;20481;-69
2024/02/27 00:09:18;;;;;;;3.30;1.50;;;;;;;6.47;91.94;100674.06;5033443;28;20454;-69
2024/02/27 00:11:45;;;;;;;2.57;1.20;;;;;;;6.45;92.18;100675.38;5035694;28;20479;-69
2024/02/27 00:14:12;;;;;;;3.63;1.90;;;;;;;6.42;92.50;100674.06;5040049;28;20441;-69
2024/02/27 00:16:38;;;;;;;3.47;1.70;;;;;;;6.48;91.97;100680.25;5039634;28;20811;-70
2024/02/27 00:19:05;;;;;;;3.67;1.50;;;;;;;6.46;92.22;100675.13;5039924;28;20470;-70
2024/02/27 00:21:33;;;;;;;2.20;1.17;;;;;;;6.40;92.39;100678.91;5039906;28;20522;-70
2024/02/27 00:24:00;;;;;;;2.57;1.23;;;;;;;6.32;92.64;100677.53;5039619;28;20483;-70
2024/02/27 00:26:26;;;;;;;2.70;1.13;;;;;;;6.36;92.82;100677.00;5040250;28;20522;-70
2024/02/27 00:28:54;;;;;;;2.97;1.23;;;;;;;6.37;92.61;100679.44;5039516;28;20478;-70
2024/02/27 00:31:21;;;;;;;3.30;1.50;;;;;;;6.27;92.40;100685.63;5039807;28;20485;-69
2024/02/27 00:33:47;;;;;;;2.30;1.20;;;;;;;6.14;92.37;100693.44;5040095;28;20550;-69
2024/02/27 00:36:14;;;;;;;4.43;1.40;;;;;;;6.09;92.60;100694.22;5039804;28;20478;-69
2024/02/27 00:38:42;;;;;;;2.60;1.10;;;;;;;6.03;92.63;100695.31;5040452;28;20481;-68
2024/02/27 00:41:08;;;;;;;4.10;1.20;;;;;;;5.94;93.47;100691.53;5040136;28;20474;-68
2024/02/27 00:43:35;;;;;;;11.13;1.73;;;;;;;6.00;93.81;100696.66;5039653;28;20788;-70
2024/02/27 00:46:02;;;;;;;3.00;1.33;;;;;;;6.04;93.45;100696.94;5039654;28;20443;-70
2024/02/27 00:48:28;;;;;;;3.93;1.97;;;;;;;6.07;93.16;100697.19;5040028;28;20471;-70
2024/02/27 00:50:55;;;;;;;3.20;1.70;;;;;;;6.01;92.84;100705.50;5039694;28;21021;-70
2024/02/27 00:53:21;;;;;;;2.30;1.17;;;;;;;5.93;93.05;100703.34;5039845;28;20536;-70
2024/02/27 00:55:49;;;;;;;6.20;2.70;;;;;;;5.97;93.52;100707.94;5039798;28;20521;-70
2024/02/27 00:58:16;;;;;;;3.40;2.00;;;;;;;5.97;93.81;100707.13;5039545;28;20541;-70
2024/02/27 01:00:43;;;;;;;4.10;2.00;;;;;;;5.94;94.10;100707.69;5039924;28;20525;-70
2024/02/27 01:03:09;;;;;;;3.80;1.33;;;;;;;5.93;94.17;100714.09;5039153;28;21049;-70
2024/02/27 01:05:36;;;;;;;4.30;0.97;;;;;;;5.96;94.55;100708.19;5039887;28;20565;-70
2024/02/27 01:08:02;;;;;;;3.43;1.63;;;;;;;5.95;94.19;100711.97;5039166;28;20907;-70
2024/02/27 01:10:29;;;;;;;3.70;1.50;;;;;;;5.96;94.31;100710.91;5039780;28;20442;-70
2024/02/27 01:12:57;;;;;;;3.23;1.53;;;;;;;5.85;94.35;100712.75;5039271;28;20482;-70
2024/02/27 01:15:24;;;;;;;3.40;1.43;;;;;;;5.82;94.70;100711.38;5039378;28;20470;-70
2024/02/27 01:17:50;;;;;;;3.17;1.40;;;;;;;5.83;94.81;100709.50;5039504;28;20482;-70
2024/02/27 01:20:17;;;;;;;5.30;2.07;;;;;;;5.85;94.71;100710.06;5039597;28;20864;-70
2024/02/27 01:22:44;;;;;;;3.50;1.50;;;;;;;5.92;94.34;100709.81;5038787;28;20530;-70
2024/02/27 01:25:12;;;;;;;4.20;1.47;;;;;;;5.85;93.85;100699.28;5035682;28;20475;-70
2024/02/27 01:27:39;;;;;;;2.90;1.57;;;;;;;5.77;94.55;100707.88;5036060;28;20443;-70
2024/02/27 01:30:09;;;;;;;4.50;1.60;;;;;;;5.77;94.57;100719.44;5036022;28;20962;-70
2024/02/27 01:32:36;;;;;;;4.93;2.43;;;;;;;5.67;94.35;100714.03;5036087;28;20556;-70
2024/02/27 01:35:03;;;;;;;2.33;1.00;;;;;;;5.61;94.76;100722.34;5036072;28;20817;-71
2024/02/27 01:37:29;;;;;;;2.63;1.03;;;;;;;5.60;94.95;100718.03;5036091;28;20441;-72
2024/02/27 01:39:56;;;;;;;4.50;1.60;;;;;;;5.48;94.06;100726.31;5035768;28;20451;-72
2024/02/27 01:42:22;;;;;;;2.60;1.10;;;;;;;5.41;94.18;100720.41;5035879;28;20810;-72
2024/02/27 01:44:51;;;;;;;2.77;1.43;;;;;;;5.47;94.44;100724.72;5035904;28;20526;-72
2024/02/27 01:47:21;;;;;;;6.87;1.50;;;;;;;5.38;94.64;100723.63;5035865;28;20522;-71
2024/02/27 01:49:48;;;;;;;2.47;1.27;;;;;;;5.45;94.38;100733.06;5035842;28;20482;-72
2024/02/27 01:52:16;;;;;;;3.93;1.33;;;;;;;5.50;94.42;100732.25;5035642;28;20568;-72
2024/02/27 01:54:44;;;;;;;2.77;1.50;;;;;;;5.47;94.45;100744.31;5035814;28;20477;-72
2024/02/27 01:57:12;;;;;;;2.33;1.20;;;;;;;5.47;94.61;100738.16;5035656;28;20471;-72
2024/02/27 01:59:41;;;;;;;4.10;1.47;;;;;;;5.46;95.18;100748.09;5035683;28;20915;-72
2024/02/27 02:02:08;;;;;;;3.80;1.53;;;;;;;5.39;95.26;100747.50;5035527;28;20467;-72
2024/02/27 02:04:37;;;;;;;2.90;1.03;;;;;;;5.43;95.39;100751.28;5035303;28;20541;-72
2024/02/27 02:07:04;;;;;;;2.43;1.00;;;;;;;5.44;95.24;100762.84;5035324;28;20867;-72
2024/02/27 02:09:31;;;;;;;3.77;1.80;;;;;;;5.38;95.28;100747.78;5035496;28;20951;-72
2024/02/27 02:11:58;;;;;;;4.20;1.83;;;;;;;5.41;95.64;100747.28;5035638;28;20519;-72
2024/02/27 02:14:25;;;;;;;2.97;1.50;;;;;;;5.38;96.04;100748.59;5035371;28;20474;-72
2024/02/27 02:16:52;;;;;;;2.00;0.90;;;;;;;5.37;95.97;100748.88;5035367;28;20526;-70
2024/02/27 02:19:18;;;;;;;2.90;1.40;;;;;;;5.31;95.96;100740.78;5035298;28;20443;-69
2024/02/27 02:21:50;;;;;;;2.70;1.20;;;;;;;5.24;96.49;100745.56;5035206;28;20526;-70
2024/02/27 02:24:19;;;;;;;8.63;2.20;;;;;;;5.28;96.49;100744.00;5034946;28;20914;-69
2024/02/27 02:26:46;;;;;;;4.00;2.50;;;;;;;5.25;96.51;100747.19;5035163;28;20442;-69
2024/02/27 02:29:13;;;;;;;4.23;1.33;;;;;;;5.31;96.71;100746.16;5035136;28;20524;-69
2024/02/27 02:31:39;;;;;;;3.87;1.53;;;;;;;5.30;96.39;100746.41;5034878;28;20435;-69
2024/02/27 02:34:06;;;;;;;4.07;1.17;;;;;;;5.29;96.85;100750.97;5034920;28;20443;-69
2024/02/27 02:36:33;;;;;;;3.57;1.53;;;;;;;5.36;96.34;100758.81;5034290;28;20447;-70
2024/02/27 02:39:01;;;;;;;3.40;1.37;;;;;;;5.35;96.04;100753.66;5034940;28;20939;-70
2024/02/27 02:41:28;;;;;;;2.97;1.27;;;;;;;5.36;96.15;100753.44;5034898;28;20526;-69
2024/02/27 02:43:54;;;;;;;4.13;1.70;;;;;;;5.25;95.88;100755.25;5035147;28;20459;-69
2024/02/27 02:46:21;;;;;;;4.13;1.60;;;;;;;5.28;95.67;100764.66;5034676;28;20467;-67
2024/02/27 02:48:48;;;;;;;3.10;1.20;;;;;;;5.30;94.68;100762.50;5035052;28;20517;-67
2024/02/27 02:51:14;;;;;;;5.40;2.33;;;;;;;5.20;94.49;100763.28;5034559;28;20471;-69
2024/02/27 02:53:41;;;;;;;2.53;1.30;;;;;;;5.24;94.97;100764.38;5034263;28;20907;-69
2024/02/27 02:56:09;;;;;;;2.53;0.90;;;;;;;5.24;94.50;100768.94;5034655;28;20506;-69
2024/02/27 02:58:35;;;;;;;3.80;1.50;;;;;;;5.28;94.72;100768.16;5034205;28;20525;-69
2024/02/27 03:01:03;;;;;;;3.13;1.40;;;;;;;5.24;94.81;100768.94;5034489;28;20465;-69
2024/02/27 03:03:29;;;;;;;3.00;1.50;;;;;;;5.19;95.69;100766.22;5034677;28;20455;-70
2024/02/27 03:05:56;;;;;;;3.07;1.30;;;;;;;5.13;95.60;100767.25;5034361;28;20439;-69
2024/02/27 03:08:24;;;;;;;3.10;1.40;;;;;;;5.09;95.75;100769.69;5034418;28;20454;-69
2024/02/27 03:10:50;;;;;;;3.03;1.10;;;;;;;5.05;96.52;100772.06;5034315;28;20450;-69
2024/02/27 03:13:18;;;;;;;2.63;1.67;;;;;;;5.10;97.95;100779.34;5033885;28;20569;-69
2024/02/27 03:15:45;;;;;;;5.13;1.23;;;;;;;5.17;97.88;100779.09;5034230;28;20469;-69
2024/02/27 03:18:11;;;;;;;3.63;1.50;;;;;;;5.25;97.57;100779.41;5034197;28;20439;-69
2024/02/27 03:20:38;;;;;;;2.53;1.30;;;;;;;5.35;97.28;100783.22;5034112;28;20443;-69
2024/02/27 03:23:05;;;;;;;4.23;2.67;;;;;;;5.36;96.90;100782.13;5034028;28;20455;-71
2024/02/27 03:25:31;;;;;;;2.60;1.50;;;;;;;5.38;96.86;100780.00;5034000;28;20535;-70
2024/02/27 03:27:58;;;;;;;5.53;1.90;;;;;;;5.43;96.82;100777.34;5033988;28;20445;-70
2024/02/27 03:30:26;;;;;;;4.47;1.43;;;;;;;5.30;96.40;100784.00;5033985;28;20455;-70
2024/02/27 03:32:53;;;;;;;3.67;1.70;;;;;;;5.22;96.76;100793.38;5034138;28;21050;-70
2024/02/27 03:35:19;;;;;;;3.30;1.20;;;;;;;5.18;96.93;100786.06;5033979;28;20473;-70
2024/02/27 03:37:46;;;;;;;3.50;1.90;;;;;;;5.18;97.22;100781.53;5033920;28;20449;-70
2024/02/27 03:40:13;;;;;;;3.03;1.10;;;;;;;5.25;97.23;100792.84;5033552;28;20439;-71
2024/02/27 03:42:39;;;;;;;4.47;2.40;;;;;;;5.25;97.46;100795.53;5033741;28;20565;-70
2024/02/27 03:45:09;;;;;;;5.53;1.40;;;;;;;5.32;97.15;100803.34;5033811;28;20475;-70
2024/02/27 03:47:37;;;;;;;2.60;1.20;;;;;;;5.29;97.09;100799.31;5033663;28;20915;-70
2024/02/27 03:50:04;;;;;;;2.43;1.13;;;;;;;5.29;96.90;100798.50;5033791;28;20927;-70
2024/02/27 03:52:31;;;;;;;7.90;2.03;;;;;;;5.19;96.75;100807.31;5033556;28;20498;-70
2024/02/27 03:54:57;;;;;;;2.00;0.70;;;;;;;5.16;96.23;100805.13;5033509;28;20467;-70
2024/02/27 03:57:24;;;;;;;3.87;1.60;;;;;;;5.09;96.14;100804.56;5033670;28;20442;-70
2024/02/27 03:59:51;;;;;;;4.40;1.43;;;;;;;5.03;96.58;100802.91;5033292;28;20435;-70
2024/02/27 04:02:17;;;;;;;3.60;1.67;;;;;;;5.05;96.69;100798.09;5033790;28;20794;-70
2024/02/27 04:04:45;;;;;;;3.93;2.10;;;;;;;5.00;96.04;100798.03;5033175;28;20443;-70
2024/02/27 04:07:12;;;;;;;3.97;2.23;;;;;;;5.00;96.14;100792.69;5033451;28;20435;-70
2024/02/27 04:09:39;;;;;;;8.33;1.90;;;;;;;4.95;97.50;100803.38;5033068;28;20526;-71
2024/02/27 04:12:06;;;;;;;3.70;1.43;;;;;;;4.94;97.44;100812.50;5033097;28;20951;-71
2024/02/27 04:14:32;;;;;;;7.67;2.13;;;;;;;4.95;97.54;100804.19;5033244;28;20935;-70
2024/02/27 04:16:59;;;;;;;5.60;1.17;;;;;;;4.95;97.55;100814.13;5033420;28;20809;-70
2024/02/27 04:19:26;;;;;;;4.70;3.37;;;;;;;4.96;98.07;100815.75;5033648;28;20542;-70
2024/02/27 04:21:54;;;;;;;3.03;1.57;;;;;;;5.03;98.36;100821.69;5033269;28;20443;-70
2024/02/27 04:24:21;;;;;;;7.83;1.97;;;;;;;5.07;97.97;100817.44;5033330;28;20442;-70
2024/02/27 04:26:47;;;;;;;6.23;2.43;;;;;;;5.05;98.49;100822.25;5033637;28;20470;-70
2024/02/27 04:29:14;;;;;;;6.60;2.47;;;;;;;5.09;98.72;100834.09;5033631;28;20475;-70
2024/02/27 04:31:45;;;;;;;5.00;1.37;;;;;;;5.09;98.60;100835.97;5033463;28;20513;-70
2024/02/27 04:34:11;;;;;;;10.47;1.30;;;;;;;5.05;98.12;100828.44;5033107;28;20972;-70
2024/02/27 04:36:38;;;;;;;4.40;1.67;;;;;;;4.98;98.82;100829.72;5033849;28;20435;-71
2024/02/27 04:39:06;;;;;;;3.20;1.37;;;;;;;4.96;98.95;100842.59;5033197;28;20475;-70
2024/02/27 04:41:32;;;;;;;3.27;1.90;;;;;;;4.97;99.52;100833.47;5033140;28;20534;-70
2024/02/27 04:43:59;;;;;;;3.10;1.40;;;;;;;4.96;99.50;100831.88;5033439;28;20501;-70
2024/02/27 04:46:26;;;;;;;3.17;1.83;;;;;;;4.98;99.34;100835.09;5032818;28;21049;-70
2024/02/27 04:48:53;;;;;;;3.33;2.30;;;;;;;4.94;99.63;100820.56;5033557;28;20853;-70
2024/02/27 04:51:18;;;;;;;2.53;1.33;;;;;;;4.96;99.35;100818.44;5033461;28;20446;-70
2024/02/27 04:53:45;;;;;;;3.20;1.70;;;;;;;4.89;99.05;100804.44;5033109;28;20482;-70
2024/02/27 04:56:13;;;;;;;4.40;1.70;;;;;;;4.91;99.17;100803.09;5033082;28;20185;-71
2024/02/27 04:58:39;;;;;;;3.57;1.57;;;;;;;4.87;99.04;100799.31;5034082;28;20481;-70
2024/02/27 05:01:10;;;;;;;3.17;1.80;;;;;;;4.84;98.58;100809.75;5036816;28;20449;-70
2024/02/27 05:03:37;;;;;;;5.00;1.70;;;;;;;4.79;98.61;100811.34;5036898;28;20455;-70
2024/02/27 05:06:05;;;;;;;7.10;2.93;;;;;;;4.78;98.49;100808.88;5036633;28;20435;-70
2024/02/27 05:08:31;;;;;;;6.40;2.80;;;;;;;4.72;98.09;100808.06;5036686;28;20439;-70
2024/02/27 05:10:58;;;;;;;5.77;2.87;;;;;;;4.60;98.07;100799.34;5036745;28;20924;-69
2024/02/27 05:13:26;;;;;;;4.07;1.93;;;;;;;4.61;98.79;100794.81;5036578;28;20483;-69
2024/02/27 05:15:52;;;;;;;4.43;2.77;;;;;;;4.63;98.96;100804.22;5036607;28;20451;-69
2024/02/27 05:18:19;;;;;;;6.37;2.37;;;;;;;4.61;99.20;100803.69;5036549;28;20530;-69
2024/02/27 05:20:46;;;;;;;4.50;2.00;;;;;;;4.60;99.61;100810.09;5036116;28;20937;-69
2024/02/27 05:23:12;;;;;;;4.13;1.83;;;;;;;4.54;100.00;100809.25;5036287;28;20546;-69
2024/02/27 05:25:39;;;;;;;3.77;2.13;;;;;;;4.47;100.00;100803.31;5036282;28;20526;-69
2024/02/27 05:28:05;;;;;;;7.30;3.17;;;;;;;4.47;100.00;100815.88;5036408;28;20438;-69
2024/02/27 05:30:33;;;;;;;6.90;2.90;;;;;;;4.50;100.00;100816.19;5036153;28;20519;-69
2024/02/27 05:33:00;;;;;;;3.87;2.50;;;;;;;4.51;100.00;100820.47;5036300;28;20482;-69
2024/02/27 05:35:27;;;;;;;5.83;2.57;;;;;;;4.55;100.00;100831.50;5035887;28;20966;-69
2024/02/27 05:37:53;;;;;;;3.90;2.20;;;;;;;4.50;100.00;100834.16;5036088;28;20439;-69
2024/02/27 05:40:21;;;;;;;2.73;1.73;;;;;;;4.47;100.00;100840.84;5035947;28;20541;-69
2024/02/27 05:42:47;;;;;;;8.23;3.50;;;;;;;4.55;100.00;100848.41;5035312;28;20650;-69
2024/02/27 05:45:14;;;;;;;8.50;2.27;;;;;;;4.61;100.00;100854.66;5035607;28;20879;-69
2024/02/27 05:47:43;;;;;;;4.73;2.73;;;;;;;4.59;100.00;100864.81;5035439;28;20440;-69
2024/02/27 05:50:10;;;;;;;8.30;2.30;;;;;;;4.54;100.00;100867.44;5035449;28;20454;-69
2024/02/27 05:52:37;;;;;;;5.17;2.33;;;;;;;4.56;100.00;100865.34;5035903;28;20463;-69
2024/02/27 05:55:04;;;;;;;7.70;2.70;;;;;;;4.57;100.00;100872.31;5035399;28;20450;-70
2024/02/27 05:57:31;;;;;;;5.77;3.03;;;;;;;4.55;100.00;100882.47;5035570;28;20447;-68
2024/02/27 05:59:58;;;;;;;5.40;2.83;;;;;;;4.48;100.00;100889.94;5035340;28;20509;-70
2024/02/27 06:02:24;;;;;;;4.50;2.13;;;;;;;4.44;100.00;100876.22;5035811;28;20463;-69
2024/02/27 06:04:52;;;;;;;7.20;3.10;;;;;;;4.40;100.00;100887.69;5035672;28;20529;-69
2024/02/27 06:07:19;;;;;;;7.33;3.97;;;;;;;4.40;100.00;100887.69;5035241;28;20962;-69
2024/02/27 06:09:45;;;;;;;5.40;2.57;;;;;;;4.38;100.00;100890.59;5035273;28;20535;-69
2024/02/27 06:12:12;;;;;;;6.53;2.93;;;;;;;4.35;100.00;100895.69;5035581;28;21043;-69
2024/02/27 06:14:39;;;;;;;3.60;2.53;;;;;;;4.28;100.00;100891.31;5035326;28;20522;-70
2024/02/27 06:17:05;;;;;;;8.03;3.10;;;;;;;4.26;100.00;100892.66;5035207;28;20949;-70
2024/02/27 06:19:32;;;;;;;4.27;2.20;;;;;;;4.33;100.00;100912.00;5035327;28;20443;-68
2024/02/27 06:22:11;;;;;;;5.30;2.80;;;;;;;4.32;100.00;100923.00;5035191;28;20896;-70
2024/02/27 06:24:38;;;;;;;6.67;3.43;;;;;;;4.37;100.00;100928.41;5035375;28;20868;-71
2024/02/27 06:27:05;;;;;;;6.33;2.93;;;;;;;4.43;100.00;100932.78;5035067;28;20449;-71
2024/02/27 06:29:32;;;;;;;7.53;3.33;;;;;;;4.39;100.00;100940.53;5035044;28;20453;-71
2024/02/27 06:31:58;;;;;;;3.93;2.20;;;;;;;4.45;100.00;100938.69;5035406;28;20459;-71
2024/02/27 06:34:25;;;;;;;6.13;3.30;;;;;;;4.46;100.00;100943.00;5035277;28;20818;-71
2024/02/27 06:36:53;;;;;;;5.87;3.20;;;;;;;4.51;100.00;100943.06;5035109;28;20481;-71
2024/02/27 06:39:22;;;;;;;8.80;4.73;;;;;;;4.48;100.00;100949.75;5035281;28;20457;-71
2024/02/27 06:41:50;;;;;;;9.83;4.17;;;;;;;4.51;100.00;100943.06;5035151;28;20863;-71
2024/02/27 06:44:17;;;;;;;5.07;3.90;;;;;;;4.62;100.00;100928.69;5035003;28;20479;-71
2024/02/27 06:46:43;;;;;;;4.27;2.23;;;;;;;4.70;100.00;100928.25;5034771;28;20443;-71
2024/02/27 06:49:10;;;;;;;4.53;2.40;;;;;;;4.75;100.00;100928.28;5035097;28;20449;-71
2024/02/27 06:51:36;;;;;;;7.03;4.63;;;;;;;4.69;100.00;100923.94;5034505;28;20447;-71
2024/02/27 06:54:03;;;;;;;12.27;5.60;;;;;;;4.78;100.00;100937.69;5049948;22;20521;-66
2024/02/27 06:56:31;;;;;;;10.80;3.93;;;;;;;4.71;100.00;100934.41;5034652;28;20479;-66
2024/02/27 06:58:57;;;;;;;7.97;4.37;;;;;;;4.66;100.00;100929.00;5034846;28;20439;-66
2024/02/27 07:01:24;;;;;;;11.00;4.10;;;;;;;4.74;100.00;100933.94;5034263;28;20957;-66
2024/02/27 07:03:51;;;;;;;6.20;3.30;;;;;;;4.72;100.00;100944.88;5034275;28;20459;-64
2024/02/27 07:06:17;;;;;;;8.80;4.47;;;;;;;4.83;100.00;100945.81;5034526;28;20434;-65
2024/02/27 07:08:47;;;;;;;8.57;4.67;;;;;;;4.86;100.00;100950.66;5034381;28;20443;-66
2024/02/27 07:11:14;;;;;;;10.40;4.20;;;;;;;4.80;100.00;100952.50;5034793;28;20510;-65
2024/02/27 07:13:42;;;;;;;7.13;4.00;;;;;;;4.85;100.00;100945.56;5033994;28;20541;-65
2024/02/27 07:16:09;;;;;;;8.03;4.47;;;;;;;4.93;100.00;100955.84;5034141;28;20439;-65
2024/02/27 07:18:35;;;;;;;8.60;2.20;;;;;;;4.94;100.00;100952.88;5034035;28;20435;-65
2024/02/27 07:21:02;;;;;;;7.57;3.73;;;;;;;4.94;100.00;100957.44;5034059;28;20475;-65
2024/02/27 07:23:29;;;;;;;8.77;4.40;;;;;;;4.92;100.00;100948.84;5034087;28;20537;-65
2024/02/27 07:25:55;;;;;;;5.60;2.93;;;;;;;4.90;100.00;100972.44;5034127;28;20439;-64
2024/02/27 07:28:22;;;;;;;11.93;4.37;;;;;;;4.90;100.00;100967.06;5034011;28;20829;-65
2024/02/27 07:30:50;;;;;;;7.43;4.53;;;;;;;4.99;100.00;100968.22;5034061;28;20439;-65
2024/02/27 07:33:17;;;;;;;7.07;3.30;;;;;;;5.00;100.00;100965.31;5033569;28;20533;-65
2024/02/27 07:35:43;;;;;;;15.83;4.20;;;;;;;4.90;100.00;100961.69;5034294;28;20439;-68
2024/02/27 07:38:10;;;;;;;7.37;4.67;;;;;;;4.99;100.00;100965.53;5034417;28;20864;-65
2024/02/27 07:40:36;;;;;;;5.93;3.70;;;;;;;5.04;100.00;100973.63;5033565;28;20475;-66
2024/02/27 07:43:03;;;;;;;7.10;3.50;;;;;;;5.06;100.00;100971.53;5033970;28;20521;-67
2024/02/27 07:45:33;;;;;;;9.20;4.97;;;;;;;4.96;100.00;100982.19;5033981;28;21025;-67
2024/02/27 07:48:01;;;;;;;8.07;3.40;;;;;;;5.00;100.00;100980.56;5034271;28;20863;-67
2024/02/27 07:50:28;;;;;;;7.03;3.53;;;;;;;4.95;100.00;100985.91;5033424;28;20439;-67
2024/02/27 07:52:56;;;;;;;5.50;2.60;;;;;;;5.00;100.00;100983.25;5033615;28;20477;-67
2024/02/27 07:55:23;;;;;;;9.10;3.37;;;;;;;5.07;100.00;100990.06;5033377;28;20577;-67
2024/02/27 07:57:49;;;;;;;9.13;3.57;;;;;;;5.14;100.00;100989.06;5033620;28;20869;-67
2024/02/27 08:00:17;;;;;;;9.03;3.90;;;;;;;5.17;100.00;100993.91;5033539;28;20530;-66
2024/02/27 08:02:44;;;;;;;8.90;4.43;;;;;;;5.15;100.00;100986.09;5033536;28;20471;-66
2024/02/27 08:05:12;;;;;;;11.50;5.53;;;;;;;5.21;100.00;100990.44;5033649;28;20522;-67
2024/02/27 08:07:39;;;;;;;22.27;4.77;;;;;;;5.30;100.00;100994.28;5033991;28;20521;-67
2024/02/27 08:10:06;;;;;;;5.47;3.10;;;;;;;5.32;100.00;101004.78;5033637;28;20444;-67
2024/02/27 08:12:33;;;;;;;7.53;4.00;;;;;;;5.36;100.00;101008.59;5033356;28;20463;-67
2024/02/27 08:15:00;;;;;;;10.93;5.30;;;;;;;5.43;100.00;101013.72;5033828;28;20479;-67
2024/02/27 08:17:26;;;;;;;4.77;2.47;;;;;;;5.36;100.00;101013.97;5033757;28;20443;-67
2024/02/27 08:19:53;;;;;;;19.07;3.70;;;;;;;5.26;100.00;101009.28;5033103;28;20439;-67
2024/02/27 08:22:21;;;;;;;8.60;3.80;;;;;;;5.20;100.00;101013.00;5033605;28;20525;-67
2024/02/27 08:24:48;;;;;;;4.37;2.70;;;;;;;5.10;100.00;101015.59;5033486;28;20526;-67
2024/02/27 08:27:14;;;;;;;7.40;4.40;;;;;;;5.22;100.00;101018.94;5033360;28;20431;-67
2024/02/27 08:29:41;;;;;;;6.00;2.20;;;;;;;5.35;100.00;101023.06;5033365;28;20447;-67
2024/02/27 08:32:08;;;;;;;9.20;5.57;;;;;;;5.50;100.00;101025.09;5033499;28;20542;-67
2024/02/27 08:34:34;;;;;;;5.20;2.27;;;;;;;5.61;100.00;101007.97;5037393;28;20573;-67
2024/02/27 08:37:01;;;;;;;8.03;4.93;;;;;;;5.54;100.00;101032.38;5037053;28;20526;-67
2024/02/27 08:39:29;;;;;;;7.90;4.07;;;;;;;5.61;100.00;101032.16;5037274;28;20530;-67
2024/02/27 08:41:56;;;;;;;6.93;3.20;;;;;;;5.70;100.00;101024.44;5037173;28;20498;-67
2024/02/27 08:44:23;;;;;;;6.57;2.40;;;;;;;5.75;100.00;101027.16;5037192;28;20915;-67
2024/02/27 08:46:51;;;;;;;9.00;3.70;;;;;;;5.65;100.00;101032.44;5036987;28;20443;-67
2024/02/27 08:49:18;;;;;;;9.80;4.60;;;;;;;5.55;100.00;101034.00;5037315;28;20439;-66
2024/02/27 08:51:44;;;;;;;9.47;5.40;;;;;;;5.62;100.00;101027.59;5036927;28;20449;-68
2024/02/27 08:54:11;;;;;;;8.47;4.23;;;;;;;5.74;100.00;101025.53;5036538;28;20491;-67
2024/02/27 08:56:40;;;;;;;8.43;4.17;;;;;;;5.79;100.00;101023.69;5036879;28;20515;-68
2024/02/27 08:59:06;;;;;;;6.83;3.70;;;;;;;5.85;100.00;101026.44;5036837;28;20447;-67
2024/02/27 09:01:33;;;;;;;9.30;4.43;;;;;;;5.92;100.00;101027.84;5036842;28;20527;-67
2024/02/27 09:04:00;;;;;;;7.90;3.80;;;;;;;5.81;100.00;101029.63;5036473;28;20785;-67
2024/02/27 09:06:26;;;;;;;7.20;4.33;;;;;;;5.87;100.00;101040.41;5037012;28;20447;-67
2024/02/27 09:08:53;;;;;;;8.07;3.87;;;;;;;5.92;100.00;101048.53;5036714;28;20471;-67
2024/02/27 09:11:20;;;;;;;13.37;4.50;;;;;;;5.85;100.00;101047.94;5037133;28;20478;-67
2024/02/27 09:13:48;;;;;;;8.70;4.10;;;;;;;5.81;100.00;101058.38;5036683;28;20462;-67
2024/02/27 09:16:14;;;;;;;8.73;4.00;;;;;;;5.65;100.00;101070.88;5036584;28;20443;-67
2024/02/27 09:18:43;;;;;;;6.00;3.63;;;;;;;5.60;100.00;101054.72;5036900;28;20844;-67
2024/02/27 09:21:10;;;;;;;7.60;3.60;;;;;;;5.62;100.00;101065.19;5036385;28;20923;-67
2024/02/27 09:23:37;;;;;;;15.37;5.50;;;;;;;5.57;100.00;101056.03;5036302;28;20455;-67
2024/02/27 09:26:03;;;;;;;6.83;3.43;;;;;;;5.61;100.00;101053.66;5036371;28;20914;-67
2024/02/27 09:28:30;;;;;;;7.87;3.67;;;;;;;5.62;100.00;101052.56;5036665;28;20478;-67
2024/02/27 09:31:02;;;;;;;9.97;4.10;;;;;;;5.80;100.00;101048.72;5036560;28;20438;-67
2024/02/27 09:33:29;;;;;;;8.37;3.73;;;;;;;5.93;100.00;101051.00;5036128;28;20512;-67
2024/02/27 09:35:56;;;;;;;7.63;3.77;;;;;;;6.03;100.00;101056.44;5035999;28;20490;-67
2024/02/27 09:38:22;;;;;;;7.30;3.90;;;;;;;6.13;100.00;101055.69;5036147;28;20826;-66
2024/02/27 09:40:53;;;;;;;7.53;3.80;;;;;;;6.17;100.00;101059.47;5035804;28;20526;-66
2024/02/27 09:43:30;;;;;;;6.77;3.80;;;;;;;6.15;100.00;101055.41;5036278;28;20463;-66
2024/02/27 09:45:58;;;;;;;7.07;3.60;;;;;;;6.14;100.00;101056.47;5036107;28;20510;-66
2024/02/27 09:48:28;;;;;;;9.80;3.67;;;;;;;6.21;100.00;101055.19;5036128;28;20449;-67
2024/02/27 09:50:56;;;;;;;9.70;3.93;;;;;;;6.16;100.00;101071.31;5036178;28;20423;-67
2024/02/27 09:53:23;;;;;;;9.20;4.17;;;;;;;6.17;100.00;101070.22;5035620;28;20815;-66
2024/02/27 09:55:51;;;;;;;9.50;4.17;;;;;;;6.21;100.00;101068.63;5035812;28;20990;-66
2024/02/27 09:58:18;;;;;;;7.37;3.37;;;;;;;6.26;100.00;101073.25;5035696;28;20482;-66
2024/02/27 10:00:46;;;;;;;7.43;3.10;;;;;;;6.31;100.00;101074.06;5035648;28;20776;-66
2024/02/27 10:03:15;;;;;;;8.20;4.00;;;;;;;6.25;100.00;101075.13;5035917;28;20495;-66
2024/02/27 10:05:42;;;;;;;7.87;4.10;;;;;;;6.24;100.00;101070.81;5036066;28;20935;-67
2024/02/27 10:08:14;;;;;;;6.67;4.00;;;;;;;6.38;100.00;101073.06;5035896;28;20525;-66
2024/02/27 10:10:42;;;;;;;10.50;4.67;;;;;;;6.43;100.00;101083.84;5035750;28;20459;-66
2024/02/27 10:13:08;;;;;;;7.50;3.60;;;;;;;6.45;100.00;101081.69;5035544;28;20455;-66
2024/02/27 10:15:35;;;;;;;7.73;3.40;;;;;;;6.54;100.00;101075.53;5035523;28;20518;-66
2024/02/27 10:18:03;;;;;;;8.53;3.13;;;;;;;6.51;99.11;101086.84;5035481;28;20435;-67
2024/02/27 10:20:31;;;;;;;6.40;3.50;;;;;;;6.48;99.38;101081.16;5035783;28;20447;-66
2024/02/27 10:22:58;;;;;;;12.63;3.50;;;;;;;6.27;100.00;101078.34;5034934;28;20487;-67
2024/02/27 10:25:27;;;;;;;8.50;4.40;;;;;;;6.31;100.00;101076.75;5036084;28;20855;-67
2024/02/27 10:27:56;;;;;;;8.10;3.97;;;;;;;6.43;100.00;101078.44;5035362;28;20497;-66
2024/02/27 10:30:23;;;;;;;6.90;3.20;;;;;;;6.46;99.75;101077.91;5034903;28;20855;-66
2024/02/27 10:32:50;;;;;;;5.00;3.30;;;;;;;6.48;99.39;101081.16;5035199;28;20463;-68
2024/02/27 10:35:17;;;;;;;8.40;4.90;;;;;;;6.53;99.03;101079.31;5034910;28;20522;-67
2024/02/27 10:37:46;;;;;;;8.60;3.80;;;;;;;6.43;98.91;101087.34;5034725;28;20462;-66
2024/02/27 10:40:13;;;;;;;7.27;3.87;;;;;;;6.48;99.42;101081.97;5034634;28;20442;-67
2024/02/27 10:42:41;;;;;;;6.53;3.17;;;;;;;6.52;100.00;101083.06;5034862;28;20607;-66
2024/02/27 10:45:09;;;;;;;7.77;4.07;;;;;;;6.56;99.40;101081.47;5034862;28;20994;-66
2024/02/27 10:47:36;;;;;;;7.30;2.90;;;;;;;6.57;99.03;101088.47;5035129;28;20497;-66
2024/02/27 10:50:05;;;;;;;6.40;3.20;;;;;;;6.54;99.23;101080.09;5034848;28;20447;-66
2024/02/27 10:52:35;;;;;;;14.97;4.10;;;;;;;6.47;99.56;101088.44;5034311;28;20951;-66
2024/02/27 10:55:04;;;;;;;6.47;3.30;;;;;;;6.47;100.00;101077.66;5034335;28;20526;-66
2024/02/27 10:57:33;;;;;;;5.83;2.70;;;;;;;6.58;99.83;101073.13;5033753;28;20442;-66
2024/02/27 11:00:00;;;;;;;9.30;4.43;;;;;;;6.62;99.40;101078.81;5034235;28;20848;-66
2024/02/27 11:02:28;;;;;;;7.60;3.60;;;;;;;6.66;99.05;101075.31;5034428;28;20569;-66
2024/02/27 11:04:56;;;;;;;7.47;3.03;;;;;;;6.74;99.19;101085.59;5034152;28;20837;-66
2024/02/27 11:07:23;;;;;;;10.47;4.80;;;;;;;6.74;99.10;101074.03;5034542;28;20490;-66
2024/02/27 11:09:51;;;;;;;4.30;2.40;;;;;;;6.82;98.21;101078.91;5034451;28;20542;-67
2024/02/27 11:12:21;;;;;;;9.37;4.60;;;;;;;6.74;98.30;101077.53;5034552;28;20455;-66
2024/02/27 11:14:52;;;;;;;6.67;3.70;;;;;;;6.79;97.94;101079.41;5034622;28;20568;-66
2024/02/27 11:17:21;;;;;;;13.90;4.27;;;;;;;6.73;98.19;101075.91;5034364;28;20908;-66
2024/02/27 11:19:50;;;;;;;5.60;2.60;;;;;;;6.78;97.40;101086.69;5034277;28;20526;-66
2024/02/27 11:22:22;;;;;;;7.17;3.33;;;;;;;6.71;96.78;101083.41;5034311;28;20490;-67
2024/02/27 11:24:49;;;;;;;5.60;3.30;;;;;;;6.73;97.20;101078.59;5034219;28;20493;-67
2024/02/27 11:27:20;;;;;;;6.10;3.90;;;;;;;6.76;97.56;101078.06;5034391;28;20455;-67
2024/02/27 11:29:49;;;;;;;8.83;3.70;;;;;;;6.77;96.93;101082.38;5034066;28;20451;-67